Nearby METAR Reports

 

KLOT - Romeoville/Chi, Illinois, USA
Distance from station: N 3mi, 5km
Updated: Fri, 28-Apr-2017 10:15pm CDT
Overcast
Overcast
 Wind from ENE
Wind: ENE 8 mph , 13 km/h
Temperature: 52°F , 11°C
Dew Point: 48°F , 9°C
Humidity: 88%
Barometer: 29.96 inHg , 1014.6 hPa
Clouds: Overcast
Visibility: 10 miles , 16 km
Cloud details: Overcast 5000 ft
2017/04/29 03:15 KLOT 290315Z AUTO 06007KT 10SM OVC050 11/09 A2996 RMK AO2 T01110086
KJOT - Joliet, Illinois, USA
Distance from station: WSW 5mi, 7km
Updated: Fri, 28-Apr-2017 10:15pm CDT
Overcast
Overcast
 Wind from ENE
Wind: ENE 5 mph , 7 km/h
Temperature: 55°F , 13°C
Dew Point: 48°F , 9°C
Humidity: 77%
Barometer: 29.95 inHg , 1014.2 hPa
Clouds: Overcast
Visibility: 10 miles , 16 km
Cloud details: Overcast 5500 ft
2017/04/29 03:15 KJOT 290315Z AUTO 07004KT 10SM OVC055 13/09 A2995 RMK AO2 T01250090
 
KC09 - Morris-Washburn, Illinois, USA
Distance from station: WSW 18mi, 29km
Updated: Fri, 28-Apr-2017 10:15pm CDT
Partly cloudy
Partly cloudy
 Wind from calm
Wind: Calm
Temperature: 55°F , 13°C
Dew Point: 52°F , 11°C
Humidity: 88%
Barometer: 29.93 inHg , 1013.5 hPa
Clouds: Partly cloudy
Visibility: 10 miles , 16 km
Cloud details: Partly cloudy 5500 ft
Partly cloudy 8500 ft
2017/04/29 03:15 KC09 290315Z AUTO 00000KT 10SM SCT055 SCT085 13/11 A2993 RMK AO2 T01300108
KARR - Chicago/Aurora, Illinois, USA
Distance from station: NW 24mi, 39km
Updated: Fri, 28-Apr-2017 10:10pm CDT
Overcast
Overcast
 Wind from NE
Wind: NE 12 mph , 19 km/h
Temperature: 54°F , 12°C
Dew Point: 46°F , 8°C
Humidity: 77%
Barometer: 29.96 inHg , 1014.6 hPa
Clouds: Overcast
Visibility: 8 miles , 13 km
Cloud details: Mostly cloudy 2500 ft
Overcast 3800 ft
2017/04/29 03:10 KARR 290310Z AUTO 04010KT 8SM BKN025 OVC038 12/08 A2996 RMK AO2 T01220078
 
KMDW - Chicago, Illinois, USA
Distance from station: NE 25mi, 39km
Updated: Fri, 28-Apr-2017 9:53pm CDT
Haze, Overcast
Haze, Overcast
 Wind from NNE
Wind: NNE 12 mph , 19 km/h
Temperature: 52°F , 11°C
Dew Point: 43°F , 6°C
Humidity: 72%
Barometer: 29.96 inHg , 1014.6 hPa
Summary: Haze
Clouds: Overcast
Visibility: 6 miles , 10 km
Cloud details: Overcast 5500 ft
2017/04/29 02:53 KMDW 290253Z 03010KT 6SM HZ OVC055 11/06 A2996 RMK AO2 SLP147 T01060061 51027
KDPA - Chicago/Dupage, Illinois, USA
Distance from station: NNW 26mi, 42km
Updated: Fri, 28-Apr-2017 9:52pm CDT
Overcast
Overcast
 Wind from NNE
Wind: NNE 9 mph , 15 km/h
Temperature: 52°F , 11°C
Dew Point: 45°F , 7°C
Humidity: 77%
Barometer: 29.96 inHg , 1014.6 hPa
Clouds: Overcast
Visibility: 8 miles , 13 km
Cloud details: Mostly cloudy 4400 ft
Overcast 6000 ft
2017/04/29 02:52 KDPA 290252Z 03008KT 8SM BKN044 OVC060 11/07 A2996 RMK AO2 SLP147 T01060072 53033 $
 
KIGQ - Chicago/Lansing, Illinois, USA
Distance from station: E 30mi, 48km
Updated: Fri, 28-Apr-2017 10:15pm CDT
Partly cloudy
Partly cloudy
 Wind from calm
Wind: Calm
Temperature: 48°F , 9°C
Dew Point: 46°F , 8°C
Humidity: 94%
Barometer: 29.96 inHg , 1014.6 hPa
Clouds: Partly cloudy
Visibility: 7 miles , 11 km
Cloud details: Partly cloudy 10000 ft
2017/04/29 03:15 KIGQ 290315Z AUTO 00000KT 7SM SCT100 09/08 A2996 RMK AO2 T00860075
KORD - Chicago O'hare, Illinois, USA
Distance from station: NNE 31mi, 50km
Updated: Fri, 28-Apr-2017 9:51pm CDT
Overcast
Overcast
 Wind from NNE
Wind: NNE 13 mph , 20 km/h
Temperature: 50°F , 10°C
Wind Chill: 45°F , 7°C
Dew Point: 39°F , 4°C
Humidity: 67%
Barometer: 29.97 inHg , 1014.9 hPa
Clouds: Overcast
Visibility: 10 miles , 16 km
Cloud details: Mostly cloudy 4700 ft
Overcast 5500 ft
2017/04/29 02:51 KORD 290251Z 03011KT 10SM BKN047 OVC055 10/04 A2997 RMK AO2 SLP149 T01000044 52030
 
KGYY - Gary Regional, Indiana, USA
Distance from station: E 36mi, 58km
Updated: Fri, 28-Apr-2017 10:15pm CDT
Mist, Clear
Mist, Clear
 Wind from N
Wind: N 7 mph , 11 km/h
Temperature: 48°F , 9°C
Wind Chill: 45°F , 7°C
Dew Point: 45°F , 7°C
Humidity: 87%
Barometer: 29.96 inHg , 1014.6 hPa
Summary: Mist
Clouds: Clear
Visibility: 5 miles , 8 km
2017/04/29 03:15 KGYY 290315Z AUTO 35006KT 5SM BR CLR 09/07 A2996 RMK AO2 T00870065
KIKK - Kankakee, Illinois, USA
Distance from station: SSE 36mi, 58km
Updated: Fri, 28-Apr-2017 10:15pm CDT
Mostly cloudy
Mostly cloudy
 Wind from calm
Wind: Calm
Temperature: 54°F , 12°C
Dew Point: 50°F , 10°C
Humidity: 88%
Barometer: 29.94 inHg , 1013.9 hPa
Clouds: Mostly cloudy
Visibility: 10 miles , 16 km
Cloud details: Mostly cloudy 7500 ft
Mostly cloudy 9500 ft
2017/04/29 03:15 KIKK 290315Z AUTO 00000KT 10SM BKN075 BKN095 12/10 A2994 RMK AO2 T01210102
 
KDKB - De Kalb, Illinois, USA
Distance from station: NW 40mi, 65km
Updated: Fri, 28-Apr-2017 10:15pm CDT
Overcast
Overcast
 Wind from NNE
Wind: NNE 9 mph , 15 km/h
Temperature: 50°F , 10°C
Wind Chill: 46°F , 8°C
Dew Point: 46°F , 8°C
Humidity: 88%
Barometer: 29.98 inHg , 1015.2 hPa
Clouds: Overcast
Visibility: 7 miles , 11 km
Cloud details: Overcast 2300 ft
2017/04/29 03:15 KDKB 290315Z AUTO 02008KT 7SM OVC023 10/08 A2998 RMK AO2 T01020080
KPWK - Palwaukee, Illinois, USA
Distance from station: NNE 41mi, 65km
Updated: Fri, 28-Apr-2017 9:52pm CDT
Overcast
Overcast
 Wind from NE
Wind: NE 9 mph , 15 km/h
Temperature: 46°F , 8°C
Wind Chill: 41°F , 5°C
Dew Point: 43°F , 6°C
Humidity: 87%
Barometer: 29.98 inHg , 1015.2 hPa
Clouds: Overcast
Visibility: 10 miles , 16 km
Cloud details: Overcast 3300 ft
2017/04/29 02:52 KPWK 290252Z AUTO 04008KT 10SM OVC033 08/06 A2998 RMK AO2 SLP156 T00830056 53026